sensor_id;sensor_type;location;lat;lon;timestamp;temperature;humidity
14682;DHT22;7429;52.498;13.480;2023-02-18T00:03:09;7.50;99.90
14682;DHT22;7429;52.498;13.480;2023-02-18T00:06:19;7.50;99.90
14682;DHT22;7429;52.498;13.480;2023-02-18T00:09:25;7.50;99.90
14682;DHT22;7429;52.498;13.480;2023-02-18T00:12:32;7.50;99.90
14682;DHT22;7429;52.498;13.480;2023-02-18T00:15:51;7.40;99.90
14682;DHT22;7429;52.498;13.480;2023-02-18T00:18:56;7.40;99.90
14682;DHT22;7429;52.498;13.480;2023-02-18T00:22:00;7.40;99.90
14682;DHT22;7429;52.498;13.480;2023-02-18T00:25:07;7.40;99.90
14682;DHT22;7429;52.498;13.480;2023-02-18T00:28:15;7.40;99.90
14682;DHT22;7429;52.498;13.480;2023-02-18T00:31:22;7.40;99.90
14682;DHT22;7429;52.498;13.480;2023-02-18T00:34:27;7.40;99.90
14682;DHT22;7429;52.498;13.480;2023-02-18T00:37:37;7.30;99.90
14682;DHT22;7429;52.498;13.480;2023-02-18T00:40:43;7.30;99.90
14682;DHT22;7429;52.498;13.480;2023-02-18T00:43:51;7.30;99.90
14682;DHT22;7429;52.498;13.480;2023-02-18T00:47:01;7.20;99.90
14682;DHT22;7429;52.498;13.480;2023-02-18T00:50:08;7.20;99.90
14682;DHT22;7429;52.498;13.480;2023-02-18T00:53:13;7.20;99.90
14682;DHT22;7429;52.498;13.480;2023-02-18T00:56:20;7.10;99.90
14682;DHT22;7429;52.498;13.480;2023-02-18T00:59:30;7.10;99.90
14682;DHT22;7429;52.498;13.480;2023-02-18T01:02:46;7.10;99.90
14682;DHT22;7429;52.498;13.480;2023-02-18T01:05:50;7.00;99.90
14682;DHT22;7429;52.498;13.480;2023-02-18T01:08:54;7.00;99.90
14682;DHT22;7429;52.498;13.480;2023-02-18T01:12:02;7.00;99.90
14682;DHT22;7429;52.498;13.480;2023-02-18T01:15:07;6.90;99.90
14682;DHT22;7429;52.498;13.480;2023-02-18T01:18:19;6.90;99.90
14682;DHT22;7429;52.498;13.480;2023-02-18T01:21:27;7.00;99.90
14682;DHT22;7429;52.498;13.480;2023-02-18T01:24:30;6.90;99.90
14682;DHT22;7429;52.498;13.480;2023-02-18T01:27:35;6.90;99.90
14682;DHT22;7429;52.498;13.480;2023-02-18T01:30:44;6.80;99.90
14682;DHT22;7429;52.498;13.480;2023-02-18T01:33:50;6.80;99.90
14682;DHT22;7429;52.498;13.480;2023-02-18T01:36:55;6.80;99.90
14682;DHT22;7429;52.498;13.480;2023-02-18T01:39:58;6.90;99.90
14682;DHT22;7429;52.498;13.480;2023-02-18T01:43:11;6.80;99.90
14682;DHT22;7429;52.498;13.480;2023-02-18T01:46:22;6.70;99.90
14682;DHT22;7429;52.498;13.480;2023-02-18T01:49:31;6.80;99.90
14682;DHT22;7429;52.498;13.480;2023-02-18T01:52:39;6.80;99.90
14682;DHT22;7429;52.498;13.480;2023-02-18T01:55:43;6.80;99.90
14682;DHT22;7429;52.498;13.480;2023-02-18T01:59:03;6.70;99.90
14682;DHT22;7429;52.498;13.480;2023-02-18T02:02:19;6.80;99.90
14682;DHT22;7429;52.498;13.480;2023-02-18T02:05:28;6.80;99.90
14682;DHT22;7429;52.498;13.480;2023-02-18T02:08:36;6.80;99.90
14682;DHT22;7429;52.498;13.480;2023-02-18T02:19:11;6.70;99.90
14682;DHT22;7429;52.498;13.480;2023-02-18T02:23:03;6.70;99.90
14682;DHT22;7429;52.498;13.480;2023-02-18T02:27:07;6.70;99.90
14682;DHT22;7429;52.498;13.480;2023-02-18T02:30:43;6.70;99.90
14682;DHT22;7429;52.498;13.480;2023-02-18T02:34:46;6.70;99.90
14682;DHT22;7429;52.498;13.480;2023-02-18T02:37:59;6.70;99.90
14682;DHT22;7429;52.498;13.480;2023-02-18T02:41:12;6.60;99.90
14682;DHT22;7429;52.498;13.480;2023-02-18T02:44:29;6.70;99.90
14682;DHT22;7429;52.498;13.480;2023-02-18T02:47:43;6.60;99.90
14682;DHT22;7429;52.498;13.480;2023-02-18T02:50:54;6.70;99.90
14682;DHT22;7429;52.498;13.480;2023-02-18T02:54:13;6.60;99.90
14682;DHT22;7429;52.498;13.480;2023-02-18T02:57:41;6.60;99.90
14682;DHT22;7429;52.498;13.480;2023-02-18T03:01:20;6.60;99.90
14682;DHT22;7429;52.498;13.480;2023-02-18T03:04:45;6.60;99.90
14682;DHT22;7429;52.498;13.480;2023-02-18T03:08:23;6.60;99.90
14682;DHT22;7429;52.498;13.480;2023-02-18T03:11:42;6.60;99.90
14682;DHT22;7429;52.498;13.480;2023-02-18T03:14:58;6.60;99.90
14682;DHT22;7429;52.498;13.480;2023-02-18T03:18:13;6.50;99.90
14682;DHT22;7429;52.498;13.480;2023-02-18T03:21:32;6.60;99.90
14682;DHT22;7429;52.498;13.480;2023-02-18T03:24:45;6.60;99.90
14682;DHT22;7429;52.498;13.480;2023-02-18T03:27:54;6.50;99.90
14682;DHT22;7429;52.498;13.480;2023-02-18T03:31:02;6.60;99.90
14682;DHT22;7429;52.498;13.480;2023-02-18T03:34:12;6.50;99.90
14682;DHT22;7429;52.498;13.480;2023-02-18T03:37:19;6.60;99.90
14682;DHT22;7429;52.498;13.480;2023-02-18T03:40:26;6.60;99.90
14682;DHT22;7429;52.498;13.480;2023-02-18T03:43:31;6.60;99.90
14682;DHT22;7429;52.498;13.480;2023-02-18T03:46:37;6.60;99.90
14682;DHT22;7429;52.498;13.480;2023-02-18T03:49:44;6.60;99.90
14682;DHT22;7429;52.498;13.480;2023-02-18T03:52:47;6.70;99.90
14682;DHT22;7429;52.498;13.480;2023-02-18T03:55:55;6.60;99.90
14682;DHT22;7429;52.498;13.480;2023-02-18T03:58:58;6.60;99.90
14682;DHT22;7429;52.498;13.480;2023-02-18T04:02:03;6.60;99.90
14682;DHT22;7429;52.498;13.480;2023-02-18T04:05:07;6.60;99.90
14682;DHT22;7429;52.498;13.480;2023-02-18T04:08:11;6.60;99.90
14682;DHT22;7429;52.498;13.480;2023-02-18T04:11:18;6.60;99.90
14682;DHT22;7429;52.498;13.480;2023-02-18T04:14:21;6.50;99.90
14682;DHT22;7429;52.498;13.480;2023-02-18T04:17:25;6.50;99.90
14682;DHT22;7429;52.498;13.480;2023-02-18T04:20:30;6.50;99.90
14682;DHT22;7429;52.498;13.480;2023-02-18T04:23:37;6.50;99.90
14682;DHT22;7429;52.498;13.480;2023-02-18T04:26:42;6.50;99.90
14682;DHT22;7429;52.498;13.480;2023-02-18T04:29:45;6.50;99.90
14682;DHT22;7429;52.498;13.480;2023-02-18T04:32:48;6.40;99.90
14682;DHT22;7429;52.498;13.480;2023-02-18T04:35:52;6.40;99.90
14682;DHT22;7429;52.498;13.480;2023-02-18T04:38:55;6.40;99.90
14682;DHT22;7429;52.498;13.480;2023-02-18T04:42:02;6.40;99.90
14682;DHT22;7429;52.498;13.480;2023-02-18T04:45:12;6.40;99.90
14682;DHT22;7429;52.498;13.480;2023-02-18T04:48:21;6.40;99.90
14682;DHT22;7429;52.498;13.480;2023-02-18T04:51:27;6.40;99.90
14682;DHT22;7429;52.498;13.480;2023-02-18T04:54:33;6.30;99.90
14682;DHT22;7429;52.498;13.480;2023-02-18T04:57:38;6.40;99.90
14682;DHT22;7429;52.498;13.480;2023-02-18T05:00:44;6.30;99.90
14682;DHT22;7429;52.498;13.480;2023-02-18T05:03:47;6.30;99.90
14682;DHT22;7429;52.498;13.480;2023-02-18T05:06:50;6.30;99.90
14682;DHT22;7429;52.498;13.480;2023-02-18T05:09:54;6.30;99.90
14682;DHT22;7429;52.498;13.480;2023-02-18T05:12:59;6.30;99.90
14682;DHT22;7429;52.498;13.480;2023-02-18T05:16:03;6.30;99.90
14682;DHT22;7429;52.498;13.480;2023-02-18T05:19:09;6.30;99.90
14682;DHT22;7429;52.498;13.480;2023-02-18T05:22:16;6.30;99.90
14682;DHT22;7429;52.498;13.480;2023-02-18T05:25:19;6.30;99.90
14682;DHT22;7429;52.498;13.480;2023-02-18T05:28:24;6.40;99.90
14682;DHT22;7429;52.498;13.480;2023-02-18T05:31:27;6.40;99.90
14682;DHT22;7429;52.498;13.480;2023-02-18T05:34:31;6.30;99.90
14682;DHT22;7429;52.498;13.480;2023-02-18T05:37:37;6.40;99.90
14682;DHT22;7429;52.498;13.480;2023-02-18T05:40:40;6.40;99.90
14682;DHT22;7429;52.498;13.480;2023-02-18T05:43:47;6.40;99.90
14682;DHT22;7429;52.498;13.480;2023-02-18T05:47:09;6.50;99.90
14682;DHT22;7429;52.498;13.480;2023-02-18T05:50:14;6.50;99.90
14682;DHT22;7429;52.498;13.480;2023-02-18T05:53:19;6.50;99.90
14682;DHT22;7429;52.498;13.480;2023-02-18T05:56:22;6.50;99.90
14682;DHT22;7429;52.498;13.480;2023-02-18T05:59:31;6.60;99.90
14682;DHT22;7429;52.498;13.480;2023-02-18T06:02:35;6.60;99.90
14682;DHT22;7429;52.498;13.480;2023-02-18T06:05:42;6.70;99.90
14682;DHT22;7429;52.498;13.480;2023-02-18T06:08:47;6.70;99.90
14682;DHT22;7429;52.498;13.480;2023-02-18T06:11:51;6.70;99.90
14682;DHT22;7429;52.498;13.480;2023-02-18T06:14:55;6.80;99.90
14682;DHT22;7429;52.498;13.480;2023-02-18T06:17:58;6.80;99.90
14682;DHT22;7429;52.498;13.480;2023-02-18T06:21:10;6.80;99.90
14682;DHT22;7429;52.498;13.480;2023-02-18T06:24:13;6.80;99.90
14682;DHT22;7429;52.498;13.480;2023-02-18T06:27:17;6.80;99.90
14682;DHT22;7429;52.498;13.480;2023-02-18T06:30:24;6.80;99.90
14682;DHT22;7429;52.498;13.480;2023-02-18T06:33:27;6.80;99.90
14682;DHT22;7429;52.498;13.480;2023-02-18T06:36:30;6.90;99.90
14682;DHT22;7429;52.498;13.480;2023-02-18T06:39:34;6.90;99.90
14682;DHT22;7429;52.498;13.480;2023-02-18T06:42:39;6.90;99.90
14682;DHT22;7429;52.498;13.480;2023-02-18T06:45:48;6.90;99.90
14682;DHT22;7429;52.498;13.480;2023-02-18T06:48:58;6.90;99.90
14682;DHT22;7429;52.498;13.480;2023-02-18T06:52:06;6.90;99.90
14682;DHT22;7429;52.498;13.480;2023-02-18T06:55:15;6.90;99.90
14682;DHT22;7429;52.498;13.480;2023-02-18T06:58:19;6.90;99.90
14682;DHT22;7429;52.498;13.480;2023-02-18T07:01:27;6.90;99.90
14682;DHT22;7429;52.498;13.480;2023-02-18T07:04:32;6.90;99.90
14682;DHT22;7429;52.498;13.480;2023-02-18T07:07:39;6.90;99.90
14682;DHT22;7429;52.498;13.480;2023-02-18T07:10:45;7.00;99.90
14682;DHT22;7429;52.498;13.480;2023-02-18T07:13:50;7.10;99.90
14682;DHT22;7429;52.498;13.480;2023-02-18T07:16:58;7.00;99.90
14682;DHT22;7429;52.498;13.480;2023-02-18T07:20:07;7.00;99.90
14682;DHT22;7429;52.498;13.480;2023-02-18T07:23:25;7.10;99.90
14682;DHT22;7429;52.498;13.480;2023-02-18T07:26:31;7.10;99.90
14682;DHT22;7429;52.498;13.480;2023-02-18T07:29:55;7.10;99.90
14682;DHT22;7429;52.498;13.480;2023-02-18T07:33:16;7.20;99.90
14682;DHT22;7429;52.498;13.480;2023-02-18T07:36:34;7.20;99.90
14682;DHT22;7429;52.498;13.480;2023-02-18T07:39:51;7.20;99.90
14682;DHT22;7429;52.498;13.480;2023-02-18T07:42:58;7.30;99.90
14682;DHT22;7429;52.498;13.480;2023-02-18T07:46:05;7.30;99.90
14682;DHT22;7429;52.498;13.480;2023-02-18T07:49:13;7.30;99.90
14682;DHT22;7429;52.498;13.480;2023-02-18T07:52:16;7.30;99.90
14682;DHT22;7429;52.498;13.480;2023-02-18T07:55:24;7.30;99.90
14682;DHT22;7429;52.498;13.480;2023-02-18T07:58:47;7.30;99.90
14682;DHT22;7429;52.498;13.480;2023-02-18T08:01:50;7.30;99.90
14682;DHT22;7429;52.498;13.480;2023-02-18T08:04:55;7.30;99.90
14682;DHT22;7429;52.498;13.480;2023-02-18T08:07:58;7.30;99.90
14682;DHT22;7429;52.498;13.480;2023-02-18T08:11:01;7.30;99.90
14682;DHT22;7429;52.498;13.480;2023-02-18T08:14:21;7.30;99.90
14682;DHT22;7429;52.498;13.480;2023-02-18T08:17:28;7.20;99.90
14682;DHT22;7429;52.498;13.480;2023-02-18T08:20:36;7.20;99.90
14682;DHT22;7429;52.498;13.480;2023-02-18T08:23:42;7.20;99.90
14682;DHT22;7429;52.498;13.480;2023-02-18T08:26:46;7.10;99.90
14682;DHT22;7429;52.498;13.480;2023-02-18T08:30:04;7.10;99.90
14682;DHT22;7429;52.498;13.480;2023-02-18T08:33:16;7.10;99.90
14682;DHT22;7429;52.498;13.480;2023-02-18T08:36:28;7.10;99.90
14682;DHT22;7429;52.498;13.480;2023-02-18T08:40:06;7.10;99.90
14682;DHT22;7429;52.498;13.480;2023-02-18T08:43:15;7.00;99.90
14682;DHT22;7429;52.498;13.480;2023-02-18T08:46:23;7.00;99.90
14682;DHT22;7429;52.498;13.480;2023-02-18T08:49:45;7.00;99.90
14682;DHT22;7429;52.498;13.480;2023-02-18T08:53:02;6.90;99.90
14682;DHT22;7429;52.498;13.480;2023-02-18T08:56:14;6.90;99.90
14682;DHT22;7429;52.498;13.480;2023-02-18T08:59:25;6.90;99.90
14682;DHT22;7429;52.498;13.480;2023-02-18T09:02:54;6.90;99.90
14682;DHT22;7429;52.498;13.480;2023-02-18T09:06:38;6.90;99.90
14682;DHT22;7429;52.498;13.480;2023-02-18T09:09:56;6.80;99.90
14682;DHT22;7429;52.498;13.480;2023-02-18T09:13:28;6.80;99.90
14682;DHT22;7429;52.498;13.480;2023-02-18T09:17:23;6.80;99.90
14682;DHT22;7429;52.498;13.480;2023-02-18T09:20:29;6.80;99.90
14682;DHT22;7429;52.498;13.480;2023-02-18T09:23:36;6.80;99.90
14682;DHT22;7429;52.498;13.480;2023-02-18T09:27:07;6.70;99.90
14682;DHT22;7429;52.498;13.480;2023-02-18T09:30:18;6.80;99.90
14682;DHT22;7429;52.498;13.480;2023-02-18T09:33:37;6.80;99.90
14682;DHT22;7429;52.498;13.480;2023-02-18T09:36:52;6.90;99.90
14682;DHT22;7429;52.498;13.480;2023-02-18T09:40:05;6.90;99.90
14682;DHT22;7429;52.498;13.480;2023-02-18T09:43:40;6.90;99.90
14682;DHT22;7429;52.498;13.480;2023-02-18T09:46:58;7.00;99.90
14682;DHT22;7429;52.498;13.480;2023-02-18T09:50:18;7.00;99.90
14682;DHT22;7429;52.498;13.480;2023-02-18T09:53:34;7.00;99.90
14682;DHT22;7429;52.498;13.480;2023-02-18T09:57:34;7.00;99.90
14682;DHT22;7429;52.498;13.480;2023-02-18T10:00:51;7.00;99.90
14682;DHT22;7429;52.498;13.480;2023-02-18T10:04:18;7.00;99.90
14682;DHT22;7429;52.498;13.480;2023-02-18T10:07:51;7.00;99.90
14682;DHT22;7429;52.498;13.480;2023-02-18T10:11:59;7.00;99.90
14682;DHT22;7429;52.498;13.480;2023-02-18T10:15:21;6.90;99.90
14682;DHT22;7429;52.498;13.480;2023-02-18T10:19:13;6.90;99.90
14682;DHT22;7429;52.498;13.480;2023-02-18T10:22:56;6.90;99.90
14682;DHT22;7429;52.498;13.480;2023-02-18T10:26:33;6.90;99.90
14682;DHT22;7429;52.498;13.480;2023-02-18T10:30:01;6.90;99.90
14682;DHT22;7429;52.498;13.480;2023-02-18T10:33:31;6.90;99.90
14682;DHT22;7429;52.498;13.480;2023-02-18T10:36:52;6.90;99.90
14682;DHT22;7429;52.498;13.480;2023-02-18T10:40:13;7.00;99.90
14682;DHT22;7429;52.498;13.480;2023-02-18T10:43:26;7.00;99.90
14682;DHT22;7429;52.498;13.480;2023-02-18T10:46:44;7.00;99.90
14682;DHT22;7429;52.498;13.480;2023-02-18T10:50:24;7.00;99.90
14682;DHT22;7429;52.498;13.480;2023-02-18T10:53:41;7.10;99.90
14682;DHT22;7429;52.498;13.480;2023-02-18T10:56:59;7.10;99.90
14682;DHT22;7429;52.498;13.480;2023-02-18T11:00:38;7.10;99.90
14682;DHT22;7429;52.498;13.480;2023-02-18T11:05:54;7.10;99.90
14682;DHT22;7429;52.498;13.480;2023-02-18T11:09:30;7.10;99.90
14682;DHT22;7429;52.498;13.480;2023-02-18T11:12:53;7.00;99.90
14682;DHT22;7429;52.498;13.480;2023-02-18T11:16:16;6.90;99.90
14682;DHT22;7429;52.498;13.480;2023-02-18T11:19:58;7.00;99.90
14682;DHT22;7429;52.498;13.480;2023-02-18T11:23:35;7.00;99.90
14682;DHT22;7429;52.498;13.480;2023-02-18T11:27:20;7.20;99.90
14682;DHT22;7429;52.498;13.480;2023-02-18T11:35:24;7.20;99.90
14682;DHT22;7429;52.498;13.480;2023-02-18T11:38:55;7.20;99.90
14682;DHT22;7429;52.498;13.480;2023-02-18T11:42:46;7.10;99.90
14682;DHT22;7429;52.498;13.480;2023-02-18T11:46:10;7.10;99.90
14682;DHT22;7429;52.498;13.480;2023-02-18T11:49:26;7.20;99.90
14682;DHT22;7429;52.498;13.480;2023-02-18T11:52:43;7.10;99.90
14682;DHT22;7429;52.498;13.480;2023-02-18T11:56:09;7.20;99.90
14682;DHT22;7429;52.498;13.480;2023-02-18T11:59:38;7.20;99.90
14682;DHT22;7429;52.498;13.480;2023-02-18T12:03:24;7.30;99.90
14682;DHT22;7429;52.498;13.480;2023-02-18T12:11:51;7.40;99.90
14682;DHT22;7429;52.498;13.480;2023-02-18T12:15:31;7.50;99.90
14682;DHT22;7429;52.498;13.480;2023-02-18T12:18:56;7.50;99.90
14682;DHT22;7429;52.498;13.480;2023-02-18T12:22:15;7.60;99.90
14682;DHT22;7429;52.498;13.480;2023-02-18T12:25:38;7.70;99.90
14682;DHT22;7429;52.498;13.480;2023-02-18T12:29:15;7.80;99.90
14682;DHT22;7429;52.498;13.480;2023-02-18T12:33:00;7.90;99.90
14682;DHT22;7429;52.498;13.480;2023-02-18T12:41:51;8.30;99.90
14682;DHT22;7429;52.498;13.480;2023-02-18T12:45:35;8.40;99.90
14682;DHT22;7429;52.498;13.480;2023-02-18T12:49:19;8.50;99.90
14682;DHT22;7429;52.498;13.480;2023-02-18T12:52:39;8.70;99.90
14682;DHT22;7429;52.498;13.480;2023-02-18T12:56:08;8.80;99.90
14682;DHT22;7429;52.498;13.480;2023-02-18T13:08:00;9.50;99.90
14682;DHT22;7429;52.498;13.480;2023-02-18T13:11:18;9.70;99.90
14682;DHT22;7429;52.498;13.480;2023-02-18T13:14:31;9.90;99.90
14682;DHT22;7429;52.498;13.480;2023-02-18T13:17:40;10.00;99.90
14682;DHT22;7429;52.498;13.480;2023-02-18T13:20:53;10.10;99.90
14682;DHT22;7429;52.498;13.480;2023-02-18T13:24:09;10.10;99.90
14682;DHT22;7429;52.498;13.480;2023-02-18T13:27:27;10.20;99.90
14682;DHT22;7429;52.498;13.480;2023-02-18T13:30:39;10.20;99.90
14682;DHT22;7429;52.498;13.480;2023-02-18T13:33:50;10.30;99.90
14682;DHT22;7429;52.498;13.480;2023-02-18T13:37:05;10.30;99.90
14682;DHT22;7429;52.498;13.480;2023-02-18T13:40:27;10.30;99.90
14682;DHT22;7429;52.498;13.480;2023-02-18T13:43:37;10.40;99.90
14682;DHT22;7429;52.498;13.480;2023-02-18T13:46:54;10.40;99.90
14682;DHT22;7429;52.498;13.480;2023-02-18T13:50:13;10.40;99.90
14682;DHT22;7429;52.498;13.480;2023-02-18T13:53:29;10.40;99.90
14682;DHT22;7429;52.498;13.480;2023-02-18T13:56:38;10.40;99.90
14682;DHT22;7429;52.498;13.480;2023-02-18T13:59:44;10.40;99.90
14682;DHT22;7429;52.498;13.480;2023-02-18T14:02:58;10.40;99.90
14682;DHT22;7429;52.498;13.480;2023-02-18T14:07:39;10.40;99.90
14682;DHT22;7429;52.498;13.480;2023-02-18T14:11:45;10.40;99.90
14682;DHT22;7429;52.498;13.480;2023-02-18T14:15:51;10.40;99.90
14682;DHT22;7429;52.498;13.480;2023-02-18T14:19:27;10.30;99.90
14682;DHT22;7429;52.498;13.480;2023-02-18T14:22:44;10.30;99.90
14682;DHT22;7429;52.498;13.480;2023-02-18T14:26:04;10.40;99.90
14682;DHT22;7429;52.498;13.480;2023-02-18T14:29:16;10.40;99.90
14682;DHT22;7429;52.498;13.480;2023-02-18T14:32:38;10.40;99.90
14682;DHT22;7429;52.498;13.480;2023-02-18T14:36:15;10.40;99.90
14682;DHT22;7429;52.498;13.480;2023-02-18T14:39:40;10.50;99.90
14682;DHT22;7429;52.498;13.480;2023-02-18T14:43:35;10.50;99.90
14682;DHT22;7429;52.498;13.480;2023-02-18T14:47:19;10.50;99.90
14682;DHT22;7429;52.498;13.480;2023-02-18T14:50:37;10.50;99.90
14682;DHT22;7429;52.498;13.480;2023-02-18T14:54:05;10.60;99.90
14682;DHT22;7429;52.498;13.480;2023-02-18T14:58:13;10.50;99.90
14682;DHT22;7429;52.498;13.480;2023-02-18T15:01:36;10.50;99.90
14682;DHT22;7429;52.498;13.480;2023-02-18T15:05:16;10.50;99.90
14682;DHT22;7429;52.498;13.480;2023-02-18T15:14:35;10.50;99.90
14682;DHT22;7429;52.498;13.480;2023-02-18T15:17:56;10.40;99.90
14682;DHT22;7429;52.498;13.480;2023-02-18T15:26:47;10.40;99.90
14682;DHT22;7429;52.498;13.480;2023-02-18T15:30:17;10.40;99.90
14682;DHT22;7429;52.498;13.480;2023-02-18T15:34:01;10.40;99.90
14682;DHT22;7429;52.498;13.480;2023-02-18T15:37:12;10.50;99.90
14682;DHT22;7429;52.498;13.480;2023-02-18T15:40:26;10.50;99.90
14682;DHT22;7429;52.498;13.480;2023-02-18T15:43:36;10.50;99.90
14682;DHT22;7429;52.498;13.480;2023-02-18T15:46:50;10.50;99.90
14682;DHT22;7429;52.498;13.480;2023-02-18T15:50:16;10.60;99.90
14682;DHT22;7429;52.498;13.480;2023-02-18T15:53:41;10.60;99.90
14682;DHT22;7429;52.498;13.480;2023-02-18T15:57:22;10.60;99.90
14682;DHT22;7429;52.498;13.480;2023-02-18T16:00:40;10.60;99.90
14682;DHT22;7429;52.498;13.480;2023-02-18T16:03:53;10.60;99.90
14682;DHT22;7429;52.498;13.480;2023-02-18T16:07:02;10.60;99.90
14682;DHT22;7429;52.498;13.480;2023-02-18T16:11:03;10.50;99.90
14682;DHT22;7429;52.498;13.480;2023-02-18T16:14:31;10.50;99.90
14682;DHT22;7429;52.498;13.480;2023-02-18T16:17:58;10.50;99.90
14682;DHT22;7429;52.498;13.480;2023-02-18T16:21:23;10.50;99.90
14682;DHT22;7429;52.498;13.480;2023-02-18T16:24:59;10.40;99.90
14682;DHT22;7429;52.498;13.480;2023-02-18T16:33:40;10.30;99.90
14682;DHT22;7429;52.498;13.480;2023-02-18T16:36:44;10.30;99.90
14682;DHT22;7429;52.498;13.480;2023-02-18T16:41:20;10.20;99.90
14682;DHT22;7429;52.498;13.480;2023-02-18T16:44:50;10.20;99.90
14682;DHT22;7429;52.498;13.480;2023-02-18T16:52:15;10.00;99.90
14682;DHT22;7429;52.498;13.480;2023-02-18T16:55:33;9.60;99.90
14682;DHT22;7429;52.498;13.480;2023-02-18T16:58:55;9.40;99.90
14682;DHT22;7429;52.498;13.480;2023-02-18T17:02:07;9.10;99.90
14682;DHT22;7429;52.498;13.480;2023-02-18T17:05:34;8.90;99.90
14682;DHT22;7429;52.498;13.480;2023-02-18T17:09:14;8.80;99.90
14682;DHT22;7429;52.498;13.480;2023-02-18T17:12:22;8.70;99.90
14682;DHT22;7429;52.498;13.480;2023-02-18T17:15:34;8.60;99.90
14682;DHT22;7429;52.498;13.480;2023-02-18T17:18:41;8.50;99.90
14682;DHT22;7429;52.498;13.480;2023-02-18T17:21:47;8.40;99.90
14682;DHT22;7429;52.498;13.480;2023-02-18T17:25:09;8.40;99.90
14682;DHT22;7429;52.498;13.480;2023-02-18T17:28:23;8.40;99.90
14682;DHT22;7429;52.498;13.480;2023-02-18T17:32:16;8.30;99.90
14682;DHT22;7429;52.498;13.480;2023-02-18T17:35:42;8.20;99.90
14682;DHT22;7429;52.498;13.480;2023-02-18T17:39:15;8.10;99.90
14682;DHT22;7429;52.498;13.480;2023-02-18T17:42:29;8.10;99.90
14682;DHT22;7429;52.498;13.480;2023-02-18T17:45:51;8.00;99.90
14682;DHT22;7429;52.498;13.480;2023-02-18T17:49:19;7.90;99.90
14682;DHT22;7429;52.498;13.480;2023-02-18T17:52:34;7.90;99.90
14682;DHT22;7429;52.498;13.480;2023-02-18T17:56:24;7.90;99.90
14682;DHT22;7429;52.498;13.480;2023-02-18T17:59:34;7.80;99.90
14682;DHT22;7429;52.498;13.480;2023-02-18T18:02:38;7.80;99.90
14682;DHT22;7429;52.498;13.480;2023-02-18T18:05:42;7.80;99.90
14682;DHT22;7429;52.498;13.480;2023-02-18T18:09:14;7.80;99.90
14682;DHT22;7429;52.498;13.480;2023-02-18T18:12:32;7.80;99.90
14682;DHT22;7429;52.498;13.480;2023-02-18T18:15:54;7.80;99.90
14682;DHT22;7429;52.498;13.480;2023-02-18T18:19:17;7.80;99.90
14682;DHT22;7429;52.498;13.480;2023-02-18T18:22:58;7.80;99.90
14682;DHT22;7429;52.498;13.480;2023-02-18T18:29:59;7.70;99.90
14682;DHT22;7429;52.498;13.480;2023-02-18T18:38:37;7.60;99.90
14682;DHT22;7429;52.498;13.480;2023-02-18T18:41:43;7.60;99.90
14682;DHT22;7429;52.498;13.480;2023-02-18T18:44:52;7.60;99.90
14682;DHT22;7429;52.498;13.480;2023-02-18T18:47:58;7.60;99.90
14682;DHT22;7429;52.498;13.480;2023-02-18T18:51:16;7.50;99.90
14682;DHT22;7429;52.498;13.480;2023-02-18T18:54:36;7.50;99.90
14682;DHT22;7429;52.498;13.480;2023-02-18T18:57:44;7.40;99.90
14682;DHT22;7429;52.498;13.480;2023-02-18T19:00:55;7.30;99.90
14682;DHT22;7429;52.498;13.480;2023-02-18T19:04:14;7.30;99.90
14682;DHT22;7429;52.498;13.480;2023-02-18T19:07:28;7.20;99.90
14682;DHT22;7429;52.498;13.480;2023-02-18T19:10:41;7.20;99.90
14682;DHT22;7429;52.498;13.480;2023-02-18T19:13:47;7.20;99.90
14682;DHT22;7429;52.498;13.480;2023-02-18T19:16:57;7.20;99.90
14682;DHT22;7429;52.498;13.480;2023-02-18T19:20:03;7.10;99.90
14682;DHT22;7429;52.498;13.480;2023-02-18T19:23:18;7.00;99.90
14682;DHT22;7429;52.498;13.480;2023-02-18T19:26:31;7.10;99.90
14682;DHT22;7429;52.498;13.480;2023-02-18T19:29:43;7.10;99.90
14682;DHT22;7429;52.498;13.480;2023-02-18T19:33:00;7.00;99.90
14682;DHT22;7429;52.498;13.480;2023-02-18T19:41:40;7.00;99.90
14682;DHT22;7429;52.498;13.480;2023-02-18T19:44:47;6.90;99.90
14682;DHT22;7429;52.498;13.480;2023-02-18T19:47:59;6.80;99.90
14682;DHT22;7429;52.498;13.480;2023-02-18T19:51:04;6.90;99.90
14682;DHT22;7429;52.498;13.480;2023-02-18T19:54:09;6.90;99.90
14682;DHT22;7429;52.498;13.480;2023-02-18T19:57:15;6.90;99.90
14682;DHT22;7429;52.498;13.480;2023-02-18T20:04:59;6.90;99.90
14682;DHT22;7429;52.498;13.480;2023-02-18T20:08:07;6.90;99.90
14682;DHT22;7429;52.498;13.480;2023-02-18T20:11:19;6.90;99.90
14682;DHT22;7429;52.498;13.480;2023-02-18T20:14:27;6.90;99.90
14682;DHT22;7429;52.498;13.480;2023-02-18T20:17:30;6.90;99.90
14682;DHT22;7429;52.498;13.480;2023-02-18T20:20:45;6.80;99.90
14682;DHT22;7429;52.498;13.480;2023-02-18T20:23:54;6.90;99.90
14682;DHT22;7429;52.498;13.480;2023-02-18T20:26:59;6.90;99.90
14682;DHT22;7429;52.498;13.480;2023-02-18T20:30:07;6.90;99.90
14682;DHT22;7429;52.498;13.480;2023-02-18T20:33:14;6.90;99.90
14682;DHT22;7429;52.498;13.480;2023-02-18T20:36:22;6.90;99.90
14682;DHT22;7429;52.498;13.480;2023-02-18T20:39:27;6.90;99.90
14682;DHT22;7429;52.498;13.480;2023-02-18T20:47:09;6.90;99.90
14682;DHT22;7429;52.498;13.480;2023-02-18T20:50:17;6.80;99.90
14682;DHT22;7429;52.498;13.480;2023-02-18T20:53:28;6.80;99.90
14682;DHT22;7429;52.498;13.480;2023-02-18T20:56:33;6.80;99.90
14682;DHT22;7429;52.498;13.480;2023-02-18T20:59:36;6.80;99.90
14682;DHT22;7429;52.498;13.480;2023-02-18T21:02:45;6.70;99.90
14682;DHT22;7429;52.498;13.480;2023-02-18T21:06:01;6.70;99.90
14682;DHT22;7429;52.498;13.480;2023-02-18T21:09:07;6.70;99.90
14682;DHT22;7429;52.498;13.480;2023-02-18T21:12:11;6.70;99.90
14682;DHT22;7429;52.498;13.480;2023-02-18T21:15:17;6.70;99.90
14682;DHT22;7429;52.498;13.480;2023-02-18T21:18:27;6.60;99.90
14682;DHT22;7429;52.498;13.480;2023-02-18T21:21:34;6.60;99.90
14682;DHT22;7429;52.498;13.480;2023-02-18T21:24:38;6.70;99.90
14682;DHT22;7429;52.498;13.480;2023-02-18T21:27:43;6.70;99.90
14682;DHT22;7429;52.498;13.480;2023-02-18T21:31:18;6.60;99.90
14682;DHT22;7429;52.498;13.480;2023-02-18T21:34:45;6.60;99.90
14682;DHT22;7429;52.498;13.480;2023-02-18T21:37:50;6.60;99.90
14682;DHT22;7429;52.498;13.480;2023-02-18T21:40:59;6.60;99.90
14682;DHT22;7429;52.498;13.480;2023-02-18T21:44:08;6.50;99.90
14682;DHT22;7429;52.498;13.480;2023-02-18T21:47:42;6.50;99.90
14682;DHT22;7429;52.498;13.480;2023-02-18T21:50:53;6.60;99.90
14682;DHT22;7429;52.498;13.480;2023-02-18T21:54:03;6.60;99.90
14682;DHT22;7429;52.498;13.480;2023-02-18T21:57:11;6.60;99.90
14682;DHT22;7429;52.498;13.480;2023-02-18T22:00:16;6.60;99.90
14682;DHT22;7429;52.498;13.480;2023-02-18T22:03:22;6.50;99.90
14682;DHT22;7429;52.498;13.480;2023-02-18T22:06:33;6.50;99.90
14682;DHT22;7429;52.498;13.480;2023-02-18T22:09:36;6.40;99.90
14682;DHT22;7429;52.498;13.480;2023-02-18T22:12:43;6.30;99.90
14682;DHT22;7429;52.498;13.480;2023-02-18T22:15:53;6.40;99.90
14682;DHT22;7429;52.498;13.480;2023-02-18T22:18:57;6.40;99.90